Terminal Aerodrome Forecast
Issued by NWS

Home | Current Version | Previous Version | Text Only | Print | Product List | Glossary On
Versions: 1 2 3 4 5 6 7 8 9 10 11 12 13 14 15 16 17 18 19 20
000
FTUS45 KRIW 201100
TAFCPR
TAF
KCPR 201127Z 2012/2112 09010KT 5SM -SN BR SCT008 OVC020
     FM201600 09007KT P6SM VCSH BKN028
     FM202000 09010KT P6SM BKN040
     FM210200 11010G15KT P6SM SCT040
     FM210600 09006KT P6SM VCFG SCT008 BKN020=

USA.gov is the U.S. government's official web portal to all federal, state and local government web resources and services.